createdAt,value
2023-02-13T00:00:02.734Z,1.98
2023-02-13T00:00:38.520Z,1.73
2023-02-13T00:01:12.600Z,1.92
2023-02-13T00:01:46.783Z,1.83
2023-02-13T00:02:20.680Z,2.45
2023-02-13T00:02:54.004Z,1.30
2023-02-13T00:03:29.299Z,1.88
2023-02-13T00:04:03.717Z,1.77
2023-02-13T00:04:36.903Z,1.60
2023-02-13T00:05:11.347Z,2.20
2023-02-13T00:05:45.302Z,1.70
2023-02-13T00:06:18.821Z,2.00
2023-02-13T00:06:53.413Z,1.52
2023-02-13T00:07:28.257Z,1.80
2023-02-13T00:08:02.569Z,1.85
2023-02-13T00:08:37.036Z,1.77
2023-02-13T00:09:11.876Z,1.88
2023-02-13T00:09:46.442Z,1.90
2023-02-13T00:10:22.046Z,1.65
2023-02-13T00:10:56.734Z,1.92
2023-02-13T00:11:31.016Z,1.90
2023-02-13T00:12:05.918Z,2.33
2023-02-13T00:12:38.946Z,1.58
2023-02-13T00:13:12.721Z,1.95
2023-02-13T00:13:47.341Z,1.90
2023-02-13T00:14:21.612Z,1.83
2023-02-13T00:14:57.004Z,2.03
2023-02-13T00:15:32.024Z,2.10
2023-02-13T00:16:05.979Z,1.50
2023-02-13T00:16:40.208Z,2.00
2023-02-13T00:17:15.311Z,1.73
2023-02-13T00:17:49.395Z,1.77
2023-02-13T00:18:22.890Z,1.88
2023-02-13T00:18:58.463Z,1.60
2023-02-13T00:19:32.013Z,1.80
2023-02-13T00:20:06.897Z,2.08
2023-02-13T00:20:41.190Z,1.92
2023-02-13T00:21:15.623Z,1.90
2023-02-13T00:21:49.284Z,1.85
2023-02-13T00:22:24.986Z,1.80
2023-02-13T00:22:59.427Z,1.90
2023-02-13T00:23:34.032Z,1.95
2023-02-13T00:24:09.461Z,1.55
2023-02-13T00:24:43.739Z,1.73
2023-02-13T00:25:16.808Z,2.20
2023-02-13T00:25:51.933Z,2.08
2023-02-13T00:26:25.579Z,1.70
2023-02-13T00:26:59.366Z,2.30
2023-02-13T00:27:34.050Z,1.58
2023-02-13T00:28:08.731Z,1.67
2023-02-13T00:28:42.366Z,2.10
2023-02-13T00:29:16.729Z,1.52
2023-02-13T00:29:49.759Z,1.80
2023-02-13T00:30:25.397Z,1.80
2023-02-13T00:31:05.045Z,1.70
2023-02-13T00:31:38.865Z,2.30
2023-02-13T00:32:12.151Z,2.42
2023-02-13T00:32:47.574Z,2.35
2023-02-13T00:33:20.946Z,1.60
2023-02-13T00:33:55.677Z,2.60
2023-02-13T00:34:30.640Z,1.83
2023-02-13T00:35:04.234Z,1.73
2023-02-13T00:35:38.264Z,2.30
2023-02-13T00:36:13.964Z,2.42
2023-02-13T00:36:48.722Z,1.80
2023-02-13T00:37:23.414Z,2.22
2023-02-13T00:37:59.696Z,2.55
2023-02-13T00:38:33.216Z,2.20
2023-02-13T00:39:07.791Z,1.90
2023-02-13T00:39:42.473Z,2.28
2023-02-13T00:40:17.631Z,2.28
2023-02-13T00:40:51.643Z,1.88
2023-02-13T00:41:26.673Z,2.33
2023-02-13T00:42:01.003Z,2.10
2023-02-13T00:42:35.054Z,2.20
2023-02-13T00:43:10.235Z,2.15
2023-02-13T00:43:43.754Z,1.95
2023-02-13T00:44:17.886Z,2.22
2023-02-13T00:44:52.165Z,2.30
2023-02-13T00:45:27.491Z,2.20
2023-02-13T00:46:01.847Z,2.00
2023-02-13T00:46:37.758Z,1.88
2023-02-13T00:47:14.779Z,2.03
2023-02-13T00:47:49.640Z,2.45
2023-02-13T00:48:23.925Z,2.42
2023-02-13T00:48:57.691Z,2.42
2023-02-13T00:49:32.937Z,2.65
2023-02-13T00:50:10.908Z,2.70
2023-02-13T00:50:45.247Z,2.17
2023-02-13T00:51:20.011Z,2.45
2023-02-13T00:51:52.831Z,2.40
2023-02-13T00:52:29.903Z,2.40
2023-02-13T00:53:03.630Z,3.03
2023-02-13T00:53:37.748Z,2.58
2023-02-13T00:54:12.030Z,2.47
2023-02-13T00:54:46.831Z,2.17
2023-02-13T00:55:21.049Z,2.22
2023-02-13T00:55:56.011Z,2.10
2023-02-13T00:56:29.972Z,2.38
2023-02-13T00:57:04.329Z,2.22
2023-02-13T00:57:40.200Z,2.30
2023-02-13T00:58:14.395Z,2.47
2023-02-13T00:58:49.191Z,2.50
2023-02-13T00:59:24.579Z,2.45
2023-02-13T00:59:58.914Z,2.45
2023-02-13T01:00:33.951Z,2.15
2023-02-13T01:01:08.790Z,2.33
2023-02-13T01:01:42.253Z,2.08
2023-02-13T01:02:15.812Z,1.90
2023-02-13T01:02:49.318Z,1.90
2023-02-13T01:03:26.366Z,1.80
2023-02-13T01:04:03.596Z,2.13
2023-02-13T01:04:37.174Z,1.90
2023-02-13T01:05:12.658Z,1.88
2023-02-13T01:05:46.155Z,2.33
2023-02-13T01:06:19.983Z,1.92
2023-02-13T01:06:54.927Z,2.30
2023-02-13T01:07:28.928Z,2.15
2023-02-13T01:08:02.529Z,1.55
2023-02-13T01:08:36.712Z,1.83
2023-02-13T01:09:10.298Z,2.20
2023-02-13T01:09:44.727Z,1.95
2023-02-13T01:10:19.545Z,2.03
2023-02-13T01:10:53.017Z,2.15
2023-02-13T01:11:26.625Z,1.60
2023-02-13T01:12:00.687Z,1.95
2023-02-13T01:12:34.733Z,2.03
2023-02-13T01:13:08.986Z,2.28
2023-02-13T01:13:43.668Z,2.03
2023-02-13T01:14:18.024Z,1.98
2023-02-13T01:14:53.878Z,1.88
2023-02-13T01:15:29.795Z,2.03
2023-02-13T01:16:04.325Z,1.70
2023-02-13T01:16:37.496Z,1.80
2023-02-13T01:17:12.223Z,2.35
2023-02-13T01:17:46.413Z,1.98
2023-02-13T01:18:22.011Z,1.92
2023-02-13T01:18:57.869Z,2.28
2023-02-13T01:19:31.657Z,1.98
2023-02-13T01:20:06.705Z,1.70
2023-02-13T01:20:41.568Z,1.90
2023-02-13T01:21:17.297Z,2.00
2023-02-13T01:21:51.019Z,1.80
2023-02-13T01:22:27.588Z,2.15
2023-02-13T01:23:01.288Z,2.03
2023-02-13T01:23:36.117Z,1.85
2023-02-13T01:24:11.251Z,1.42
2023-02-13T01:24:45.490Z,1.70
2023-02-13T01:25:20.310Z,2.00
2023-02-13T01:25:55.125Z,2.00
2023-02-13T01:26:29.298Z,1.90
2023-02-13T01:27:03.254Z,2.10
2023-02-13T01:27:38.586Z,1.55
2023-02-13T01:28:12.817Z,1.83
2023-02-13T01:28:46.498Z,2.15
2023-02-13T01:29:20.631Z,1.92
2023-02-13T01:29:55.771Z,2.00
2023-02-13T01:30:31.176Z,2.17
2023-02-13T01:31:08.225Z,2.00
2023-02-13T01:31:42.436Z,1.90
2023-02-13T01:32:15.938Z,2.25
2023-02-13T01:32:51.232Z,2.20
2023-02-13T01:33:25.145Z,2.20
2023-02-13T01:33:58.706Z,2.40
2023-02-13T01:34:34.403Z,2.33
2023-02-13T01:35:09.833Z,2.22
2023-02-13T01:35:43.289Z,2.22
2023-02-13T01:36:17.708Z,2.40
2023-02-13T01:36:51.685Z,2.28
2023-02-13T01:37:25.771Z,2.25
2023-02-13T01:38:00.968Z,2.10
2023-02-13T01:38:35.198Z,1.70
2023-02-13T01:39:10.681Z,2.80
2023-02-13T01:39:45.013Z,2.00
2023-02-13T01:40:19.565Z,2.53
2023-02-13T01:40:54.672Z,2.03
2023-02-13T01:41:31.572Z,1.73
2023-02-13T01:42:07.306Z,2.08
2023-02-13T01:42:41.519Z,1.80
2023-02-13T01:43:16.108Z,1.98
2023-02-13T01:43:52.490Z,2.60
2023-02-13T01:44:44.755Z,2.30
2023-02-13T01:45:26.125Z,2.00
2023-02-13T01:46:01.080Z,1.90
2023-02-13T01:46:38.819Z,1.85
2023-02-13T01:47:15.120Z,1.85
2023-02-13T01:47:50.712Z,2.10
2023-02-13T01:48:27.879Z,1.77
2023-02-13T01:49:06.270Z,1.92
2023-02-13T01:49:41.640Z,2.28
2023-02-13T01:50:23.272Z,2.17
2023-02-13T01:51:00.912Z,2.10
2023-02-13T01:51:37.300Z,2.03
2023-02-13T01:52:11.757Z,2.30
2023-02-13T01:52:46.416Z,2.10
2023-02-13T01:53:22.218Z,2.22
2023-02-13T01:54:01.915Z,3.00
2023-02-13T01:54:36.141Z,2.45
2023-02-13T01:55:12.317Z,1.85
2023-02-13T01:55:49.639Z,2.50
2023-02-13T01:56:26.600Z,1.88
2023-02-13T01:57:03.650Z,2.30
2023-02-13T01:57:39.252Z,2.15
2023-02-13T01:58:15.131Z,2.15
2023-02-13T01:58:53.867Z,1.83
2023-02-13T01:59:30.064Z,1.92
2023-02-13T02:00:08.451Z,2.40
2023-02-13T02:00:51.116Z,2.20
2023-02-13T02:01:25.487Z,2.60
2023-02-13T02:02:04.085Z,1.88
2023-02-13T02:02:39.109Z,2.50
2023-02-13T02:03:15.614Z,2.47
2023-02-13T02:03:51.972Z,2.45
2023-02-13T02:04:27.291Z,2.45
2023-02-13T02:05:00.789Z,2.33
2023-02-13T02:05:38.060Z,2.60
2023-02-13T02:06:14.414Z,2.80
2023-02-13T02:06:51.942Z,2.30
2023-02-13T02:07:39.314Z,2.50
2023-02-13T02:08:15.427Z,2.30
2023-02-13T02:08:52.342Z,2.50
2023-02-13T02:09:30.624Z,2.80
2023-02-13T02:10:06.797Z,2.70
2023-02-13T02:10:40.969Z,2.85
2023-02-13T02:11:19.541Z,2.65
2023-02-13T02:11:56.170Z,3.00
2023-02-13T02:12:33.784Z,2.60
2023-02-13T02:13:09.239Z,2.78
2023-02-13T02:13:46.819Z,2.30
2023-02-13T02:14:21.674Z,2.65
2023-02-13T02:14:57.247Z,2.75
2023-02-13T02:15:33.608Z,2.92
2023-02-13T02:16:07.658Z,2.60
2023-02-13T02:16:42.467Z,2.97
2023-02-13T02:17:18.264Z,2.50
2023-02-13T02:17:52.551Z,2.60
2023-02-13T02:18:26.482Z,3.08
2023-02-13T02:19:01.832Z,2.97
2023-02-13T02:19:37.834Z,2.63
2023-02-13T02:20:20.791Z,2.50
2023-02-13T02:21:32.933Z,2.90
2023-02-13T02:22:20.226Z,2.90
2023-02-13T02:23:07.298Z,2.88
2023-02-13T02:23:49.034Z,2.90
2023-02-13T02:24:43.001Z,2.30
2023-02-13T02:25:32.597Z,3.10
2023-02-13T02:26:26.174Z,2.63
2023-02-13T02:27:06.054Z,2.75
2023-02-13T02:27:55.647Z,2.67
2023-02-13T02:28:45.565Z,2.58
2023-02-13T02:29:39.657Z,2.58
2023-02-13T02:30:30.880Z,2.85
2023-02-13T02:31:32.814Z,2.20
2023-02-13T02:32:12.575Z,2.75
2023-02-13T02:33:27.775Z,2.40
2023-02-13T02:34:11.427Z,2.42
2023-02-13T02:34:52.736Z,2.50
2023-02-13T02:35:33.555Z,2.55
2023-02-13T02:36:16.334Z,2.40
2023-02-13T02:36:58.178Z,2.67
2023-02-13T02:37:38.979Z,3.08
2023-02-13T02:38:23.651Z,2.42
2023-02-13T02:39:05.625Z,2.40
2023-02-13T02:40:21.213Z,2.75
2023-02-13T02:41:02.561Z,2.40
2023-02-13T02:41:46.600Z,3.10
2023-02-13T02:42:30.425Z,2.97
2023-02-13T02:43:13.947Z,2.90
2023-02-13T02:43:56.941Z,2.72
2023-02-13T02:44:33.403Z,2.90
2023-02-13T02:45:14.118Z,2.70
2023-02-13T02:45:50.987Z,2.55
2023-02-13T02:46:26.360Z,2.65
2023-02-13T02:47:23.677Z,2.65
2023-02-13T02:48:19.326Z,2.50
2023-02-13T02:49:15.856Z,2.38
2023-02-13T02:50:03.421Z,2.13
2023-02-13T02:50:40.658Z,2.20
2023-02-13T02:51:20.186Z,2.42
2023-02-13T02:52:04.077Z,1.95
2023-02-13T02:52:44.617Z,2.17
2023-02-13T02:53:25.677Z,2.55
2023-02-13T02:54:25.655Z,2.20
2023-02-13T02:56:01.909Z,1.95
2023-02-13T02:56:41.557Z,2.33
2023-02-13T02:57:18.078Z,2.13
2023-02-13T02:58:20.518Z,2.22
2023-02-13T02:59:13.504Z,3.05
2023-02-13T03:00:05.873Z,2.13
2023-02-13T03:00:57.339Z,2.00
2023-02-13T03:01:59.969Z,2.05
2023-02-13T03:02:53.517Z,2.40
2023-02-13T03:03:47.653Z,2.33
2023-02-13T03:04:44.297Z,2.20
2023-02-13T03:05:38.779Z,2.25
2023-02-13T03:06:18.795Z,2.47
2023-02-13T03:06:55.115Z,2.47
2023-02-13T03:07:30.914Z,2.35
2023-02-13T03:08:05.664Z,2.20
2023-02-13T03:08:57.853Z,2.97
2023-02-13T03:09:51.593Z,2.03
2023-02-13T03:10:46.048Z,1.92
2023-02-13T03:11:38.265Z,2.00
2023-02-13T03:12:31.135Z,2.42
2023-02-13T03:13:25.153Z,2.35
2023-02-13T03:14:01.192Z,2.40
2023-02-13T03:14:34.471Z,2.53
2023-02-13T03:15:10.069Z,2.30
2023-02-13T03:16:00.792Z,2.38
2023-02-13T03:16:56.110Z,2.10
2023-02-13T03:17:48.228Z,2.50
2023-02-13T03:18:41.430Z,2.03
2023-02-13T03:19:41.412Z,2.25
2023-02-13T03:20:52.733Z,2.40
2023-02-13T03:22:27.242Z,2.22
2023-02-13T03:23:14.244Z,2.50
2023-02-13T03:23:52.946Z,2.38
2023-02-13T03:24:29.243Z,2.28
2023-02-13T03:25:08.125Z,2.13
2023-02-13T03:25:49.928Z,2.30
2023-02-13T03:26:46.698Z,2.17
2023-02-13T03:27:41.416Z,1.70
2023-02-13T03:28:37.175Z,2.40
2023-02-13T03:29:31.867Z,1.90
2023-02-13T03:30:12.534Z,1.95
2023-02-13T03:31:24.326Z,1.90
2023-02-13T03:32:02.268Z,2.15
2023-02-13T03:32:39.083Z,1.98
2023-02-13T03:33:24.133Z,2.10
2023-02-13T03:34:00.895Z,1.83
2023-02-13T03:34:51.731Z,2.40
2023-02-13T03:35:47.409Z,1.60
2023-02-13T03:36:45.844Z,1.70
2023-02-13T03:37:41.229Z,1.90
2023-02-13T03:38:18.618Z,2.17
2023-02-13T03:38:57.513Z,1.70
2023-02-13T03:39:37.949Z,1.95
2023-02-13T03:40:14.992Z,2.00
2023-02-13T03:41:08.459Z,2.00
2023-02-13T03:41:43.856Z,1.77
2023-02-13T03:42:23.326Z,1.90
2023-02-13T03:43:01.503Z,2.03
2023-02-13T03:43:38.996Z,1.88
2023-02-13T03:44:15.302Z,2.10
2023-02-13T03:45:11.291Z,1.80
2023-02-13T03:45:53.901Z,1.80
2023-02-13T03:46:29.582Z,2.00
2023-02-13T03:47:04.197Z,2.20
2023-02-13T03:47:38.490Z,1.85
2023-02-13T03:48:35.881Z,1.90
2023-02-13T03:49:31.409Z,1.80
2023-02-13T03:50:07.843Z,2.35
2023-02-13T03:50:44.303Z,4.70
2023-02-13T03:51:21.460Z,3.10
2023-02-13T03:51:57.071Z,1.80
2023-02-13T03:52:33.854Z,1.60
2023-02-13T03:53:09.940Z,2.10
2023-02-13T03:53:44.442Z,1.80
2023-02-13T03:54:19.783Z,2.20
2023-02-13T03:55:13.910Z,2.08
2023-02-13T03:56:07.238Z,1.98
2023-02-13T03:57:00.508Z,1.50
2023-02-13T03:57:53.112Z,2.05
2023-02-13T03:58:48.758Z,1.60
2023-02-13T03:59:27.614Z,1.90
2023-02-13T04:00:02.981Z,1.92
2023-02-13T04:00:51.189Z,1.83
2023-02-13T04:01:28.410Z,1.83
2023-02-13T04:02:05.362Z,1.65
2023-02-13T04:02:41.848Z,1.60
2023-02-13T04:03:19.459Z,2.13
2023-02-13T04:03:58.341Z,1.65
2023-02-13T04:04:36.740Z,1.80
2023-02-13T04:05:17.469Z,1.70
2023-02-13T04:05:53.484Z,1.80
2023-02-13T04:06:29.112Z,1.77
2023-02-13T04:07:06.642Z,1.80
2023-02-13T04:07:41.169Z,1.80
2023-02-13T04:08:15.746Z,1.60
2023-02-13T04:08:51.210Z,2.35
2023-02-13T04:09:25.388Z,1.55
2023-02-13T04:10:00.418Z,1.80
2023-02-13T04:10:37.369Z,1.70
2023-02-13T04:11:12.161Z,2.00
2023-02-13T04:11:51.040Z,1.95
2023-02-13T04:12:30.120Z,1.55
2023-02-13T04:13:07.241Z,1.73
2023-02-13T04:13:43.929Z,1.65
2023-02-13T04:14:22.325Z,1.73
2023-02-13T04:15:00.034Z,2.13
2023-02-13T04:15:37.644Z,1.77
2023-02-13T04:16:12.453Z,1.83
2023-02-13T04:16:48.078Z,2.30
2023-02-13T04:17:30.193Z,3.35
2023-02-13T04:18:07.851Z,1.95
2023-02-13T04:18:44.834Z,2.20
2023-02-13T04:19:18.791Z,2.20
2023-02-13T04:19:53.432Z,1.80
2023-02-13T04:20:31.421Z,1.92
2023-02-13T04:21:05.991Z,1.90
2023-02-13T04:21:40.544Z,1.85
2023-02-13T04:22:15.522Z,1.73
2023-02-13T04:22:49.686Z,1.75
2023-02-13T04:23:23.969Z,1.70
2023-02-13T04:23:59.223Z,2.13
2023-02-13T04:24:32.739Z,1.65
2023-02-13T04:25:07.407Z,2.10
2023-02-13T04:25:44.330Z,1.60
2023-02-13T04:26:18.958Z,1.60
2023-02-13T04:26:53.661Z,1.73
2023-02-13T04:27:28.982Z,2.25
2023-02-13T04:28:03.827Z,2.15
2023-02-13T04:28:38.294Z,2.20
2023-02-13T04:29:14.134Z,2.20
2023-02-13T04:29:48.810Z,2.05
2023-02-13T04:30:22.368Z,1.95
2023-02-13T04:30:58.499Z,2.15
2023-02-13T04:31:32.402Z,1.88
2023-02-13T04:32:07.254Z,1.88
2023-02-13T04:32:42.462Z,2.03
2023-02-13T04:33:15.489Z,2.45
2023-02-13T04:33:49.759Z,2.33
2023-02-13T04:34:25.198Z,2.40
2023-02-13T04:34:59.256Z,2.10
2023-02-13T04:35:34.732Z,2.72
2023-02-13T04:36:09.654Z,1.98
2023-02-13T04:36:43.366Z,2.33
2023-02-13T04:37:17.507Z,2.28
2023-02-13T04:37:52.705Z,2.13
2023-02-13T04:38:26.900Z,2.17
2023-02-13T04:39:01.940Z,2.40
2023-02-13T04:39:36.235Z,2.33
2023-02-13T04:40:12.753Z,2.10
2023-02-13T04:40:46.516Z,2.03
2023-02-13T04:41:20.412Z,1.88
2023-02-13T04:41:55.664Z,1.70
2023-02-13T04:42:30.322Z,2.08
2023-02-13T04:43:04.474Z,1.85
2023-02-13T04:43:39.249Z,1.77
2023-02-13T04:44:12.864Z,1.90
2023-02-13T04:44:46.929Z,1.40
2023-02-13T04:45:22.445Z,1.80
2023-02-13T04:45:56.780Z,1.58
2023-02-13T04:46:32.094Z,1.88
2023-02-13T04:47:07.212Z,1.60
2023-02-13T04:47:41.341Z,1.50
2023-02-13T04:48:15.464Z,1.73
2023-02-13T04:48:50.760Z,1.42
2023-02-13T04:49:24.814Z,1.95
2023-02-13T04:49:58.548Z,1.50
2023-02-13T04:50:35.746Z,1.52
2023-02-13T04:51:09.992Z,1.83
2023-02-13T04:51:43.666Z,1.45
2023-02-13T04:52:18.819Z,1.42
2023-02-13T04:52:54.790Z,1.92
2023-02-13T04:53:28.531Z,1.55
2023-02-13T04:54:04.335Z,1.73
2023-02-13T04:54:37.974Z,1.88
2023-02-13T04:55:11.132Z,1.40
2023-02-13T04:55:46.078Z,1.60
2023-02-13T04:56:20.111Z,1.60
2023-02-13T04:56:56.096Z,1.67
2023-02-13T04:57:30.840Z,1.50
2023-02-13T04:58:04.789Z,1.85
2023-02-13T04:58:40.005Z,1.63
2023-02-13T04:59:15.262Z,1.30
2023-02-13T04:59:49.051Z,1.50
2023-02-13T05:00:23.913Z,1.65
2023-02-13T05:00:57.941Z,1.60
2023-02-13T05:01:32.216Z,1.73
2023-02-13T05:02:07.019Z,1.33
2023-02-13T05:02:41.158Z,2.85
2023-02-13T05:03:15.973Z,1.65
2023-02-13T05:03:50.813Z,1.75
2023-02-13T05:04:25.992Z,1.85
2023-02-13T05:04:59.657Z,1.42
2023-02-13T05:05:36.834Z,1.40
2023-02-13T05:06:10.538Z,1.60
2023-02-13T05:06:44.321Z,1.77
2023-02-13T05:07:20.764Z,1.77
2023-02-13T05:07:54.352Z,1.35
2023-02-13T05:08:28.940Z,1.40
2023-02-13T05:09:03.643Z,1.50
2023-02-13T05:09:37.035Z,1.52
2023-02-13T05:10:11.728Z,1.60
2023-02-13T05:10:46.476Z,1.42
2023-02-13T05:11:20.469Z,1.88
2023-02-13T05:11:54.269Z,1.48
2023-02-13T05:12:29.207Z,1.50
2023-02-13T05:13:02.805Z,1.45
2023-02-13T05:13:37.097Z,1.50
2023-02-13T05:14:11.900Z,1.48
2023-02-13T05:14:47.169Z,1.50
2023-02-13T05:15:21.474Z,1.42
2023-02-13T05:15:55.860Z,1.35
2023-02-13T05:16:29.483Z,1.40
2023-02-13T05:17:04.256Z,1.83
2023-02-13T05:17:38.385Z,1.88
2023-02-13T05:18:13.038Z,1.58
2023-02-13T05:18:47.063Z,1.20
2023-02-13T05:19:22.296Z,1.00
2023-02-13T05:19:56.669Z,1.40
2023-02-13T05:20:31.130Z,1.40
2023-02-13T05:21:25.112Z,1.48
2023-02-13T05:22:16.904Z,1.40
2023-02-13T05:23:10.704Z,1.20
2023-02-13T05:23:46.672Z,1.55
2023-02-13T05:24:23.160Z,1.20
2023-02-13T05:24:57.496Z,1.30
2023-02-13T05:25:32.688Z,1.38
2023-02-13T05:26:06.553Z,1.52
2023-02-13T05:26:40.869Z,1.35
2023-02-13T05:27:14.890Z,1.50
2023-02-13T05:27:48.229Z,1.30
2023-02-13T05:28:40.911Z,1.40
2023-02-13T05:29:23.120Z,1.40
2023-02-13T05:29:59.356Z,1.13
2023-02-13T05:30:32.836Z,1.70
2023-02-13T05:31:06.998Z,1.58
2023-02-13T05:31:40.780Z,1.50
2023-02-13T05:32:16.237Z,1.50
2023-02-13T05:32:52.455Z,1.30
2023-02-13T05:33:26.437Z,1.42
2023-02-13T05:34:01.987Z,1.50
2023-02-13T05:34:35.459Z,1.20
2023-02-13T05:35:09.937Z,1.88
2023-02-13T05:35:45.169Z,1.60
2023-02-13T05:36:19.718Z,1.98
2023-02-13T05:36:54.287Z,1.85
2023-02-13T05:37:29.046Z,2.05
2023-02-13T05:38:03.306Z,1.38
2023-02-13T05:38:39.005Z,1.50
2023-02-13T05:39:13.958Z,1.33
2023-02-13T05:39:48.941Z,1.65
2023-02-13T05:40:24.495Z,2.38
2023-02-13T05:41:00.776Z,1.80
2023-02-13T05:41:34.390Z,1.40
2023-02-13T05:42:11.327Z,1.60
2023-02-13T05:42:44.589Z,1.70
2023-02-13T05:43:19.359Z,1.45
2023-02-13T05:43:54.912Z,1.75
2023-02-13T05:44:29.472Z,1.40
2023-02-13T05:45:04.358Z,1.52
2023-02-13T05:45:38.725Z,1.80
2023-02-13T05:46:13.275Z,1.73
2023-02-13T05:46:48.046Z,1.67
2023-02-13T05:47:22.170Z,1.90
2023-02-13T05:47:55.776Z,1.85
2023-02-13T05:48:31.216Z,1.70
2023-02-13T05:49:05.731Z,1.80
2023-02-13T05:49:40.910Z,2.00
2023-02-13T05:50:16.953Z,1.80
2023-02-13T05:50:51.823Z,1.80
2023-02-13T05:51:28.765Z,1.83
2023-02-13T05:52:03.041Z,1.80
2023-02-13T05:52:37.814Z,1.98
2023-02-13T05:53:13.352Z,2.00
2023-02-13T05:53:47.039Z,1.90
2023-02-13T05:54:21.307Z,2.08
2023-02-13T05:54:56.670Z,2.03
2023-02-13T05:55:30.927Z,1.67
2023-02-13T05:56:06.713Z,2.03
2023-02-13T05:56:41.553Z,1.77
2023-02-13T05:57:14.890Z,1.83
2023-02-13T05:57:48.984Z,1.50
2023-02-13T05:58:24.313Z,1.70
2023-02-13T05:58:59.044Z,1.67
2023-02-13T05:59:35.239Z,1.70
2023-02-13T06:00:10.875Z,1.98
2023-02-13T06:00:45.587Z,2.78
2023-02-13T06:01:20.935Z,2.03
2023-02-13T06:01:54.763Z,2.58
2023-02-13T06:02:28.320Z,1.80
2023-02-13T06:03:04.064Z,1.92
2023-02-13T06:03:37.887Z,2.25
2023-02-13T06:04:11.869Z,1.98
2023-02-13T06:04:46.906Z,1.83
2023-02-13T06:05:21.739Z,2.15
2023-02-13T06:05:57.025Z,2.20
2023-02-13T06:06:33.896Z,2.42
2023-02-13T06:07:07.826Z,2.08
2023-02-13T06:07:43.138Z,2.05
2023-02-13T06:08:17.355Z,1.90
2023-02-13T06:08:52.118Z,2.10
2023-02-13T06:09:26.968Z,1.80
2023-02-13T06:10:02.139Z,2.35
2023-02-13T06:10:37.551Z,2.03
2023-02-13T06:11:13.234Z,2.28
2023-02-13T06:11:47.982Z,2.47
2023-02-13T06:12:21.497Z,1.88
2023-02-13T06:12:56.403Z,2.10
2023-02-13T06:13:32.052Z,2.65
2023-02-13T06:14:07.397Z,1.85
2023-02-13T06:14:41.890Z,1.95
2023-02-13T06:15:17.104Z,2.50
2023-02-13T06:15:51.894Z,2.92
2023-02-13T06:16:27.103Z,2.20
2023-02-13T06:17:02.461Z,2.20
2023-02-13T06:17:37.069Z,2.65
2023-02-13T06:18:13.057Z,2.50
2023-02-13T06:18:46.760Z,2.10
2023-02-13T06:19:21.545Z,3.70
2023-02-13T06:19:55.737Z,2.28
2023-02-13T06:20:29.464Z,2.28
2023-02-13T06:21:04.435Z,3.63
2023-02-13T06:21:40.488Z,5.40
2023-02-13T06:22:16.174Z,2.75
2023-02-13T06:22:51.114Z,2.30
2023-02-13T06:23:25.903Z,2.55
2023-02-13T06:24:00.227Z,3.03
2023-02-13T06:24:34.979Z,2.60
2023-02-13T06:25:09.083Z,2.30
2023-02-13T06:25:43.095Z,2.17
2023-02-13T06:26:17.310Z,2.80
2023-02-13T06:26:50.874Z,2.42
2023-02-13T06:27:25.700Z,3.15
2023-02-13T06:28:00.615Z,2.53
2023-02-13T06:28:34.243Z,2.65
2023-02-13T06:29:10.004Z,2.17
2023-02-13T06:29:45.797Z,2.45
2023-02-13T06:30:21.091Z,2.33
2023-02-13T06:30:56.606Z,1.98
2023-02-13T06:31:30.745Z,2.80
2023-02-13T06:32:05.652Z,2.50
2023-02-13T06:32:39.106Z,3.03
2023-02-13T06:33:12.786Z,2.53
2023-02-13T06:33:47.804Z,2.35
2023-02-13T06:34:22.039Z,2.10
2023-02-13T06:34:57.019Z,2.17
2023-02-13T06:35:32.332Z,2.63
2023-02-13T06:36:06.623Z,2.90
2023-02-13T06:36:43.582Z,2.00
2023-02-13T06:37:17.562Z,2.30
2023-02-13T06:37:51.367Z,2.15
2023-02-13T06:38:26.784Z,3.22
2023-02-13T06:39:00.875Z,2.58
2023-02-13T06:39:34.817Z,2.45
2023-02-13T06:40:10.762Z,2.80
2023-02-13T06:40:44.116Z,2.83
2023-02-13T06:41:19.692Z,2.38
2023-02-13T06:41:54.728Z,2.70
2023-02-13T06:42:28.387Z,2.47
2023-02-13T06:43:04.052Z,2.30
2023-02-13T06:43:39.840Z,2.20
2023-02-13T06:44:14.265Z,2.30
2023-02-13T06:44:49.607Z,2.22
2023-02-13T06:45:24.185Z,2.15
2023-02-13T06:45:58.939Z,2.17
2023-02-13T06:46:33.758Z,2.33
2023-02-13T06:47:08.593Z,1.92
2023-02-13T06:47:42.988Z,2.17
2023-02-13T06:48:17.685Z,1.90
2023-02-13T06:48:51.252Z,2.00
2023-02-13T06:49:25.330Z,2.13
2023-02-13T06:49:59.652Z,2.00
2023-02-13T06:50:33.204Z,2.08
2023-02-13T06:51:07.884Z,2.22
2023-02-13T06:51:45.190Z,2.13
2023-02-13T06:52:18.888Z,2.15
2023-02-13T06:52:54.102Z,2.08
2023-02-13T06:53:29.534Z,2.05
2023-02-13T06:54:03.366Z,2.08
2023-02-13T06:54:46.900Z,1.98
2023-02-13T06:55:23.789Z,2.50
2023-02-13T06:55:58.464Z,1.92
2023-02-13T06:56:33.528Z,2.20
2023-02-13T06:57:07.313Z,2.47
2023-02-13T06:57:43.006Z,2.10
2023-02-13T06:58:17.615Z,2.92
2023-02-13T06:58:52.936Z,3.10
2023-02-13T06:59:28.743Z,2.55
2023-02-13T07:00:06.555Z,1.92
2023-02-13T07:00:40.084Z,2.08
2023-02-13T07:01:15.102Z,2.13
2023-02-13T07:01:48.779Z,1.80
2023-02-13T07:02:22.836Z,2.50
2023-02-13T07:02:57.249Z,2.08
2023-02-13T07:03:31.892Z,2.10
2023-02-13T07:04:06.324Z,1.92
2023-02-13T07:04:41.207Z,2.20
2023-02-13T07:05:14.959Z,1.85
2023-02-13T07:05:52.059Z,2.05
2023-02-13T07:06:26.908Z,1.95
2023-02-13T07:07:03.787Z,2.00
2023-02-13T07:07:39.063Z,2.17
2023-02-13T07:08:14.183Z,2.28
2023-02-13T07:08:51.535Z,2.05
2023-02-13T07:09:25.821Z,2.05
2023-02-13T07:10:00.471Z,2.05
2023-02-13T07:10:34.714Z,2.15
2023-02-13T07:11:10.566Z,1.90
2023-02-13T07:11:43.441Z,1.88
2023-02-13T07:12:17.663Z,2.08
2023-02-13T07:13:04.956Z,2.10
2023-02-13T07:13:38.526Z,1.90
2023-02-13T07:14:13.626Z,1.90
2023-02-13T07:14:48.272Z,2.50
2023-02-13T07:15:22.884Z,2.20
2023-02-13T07:15:58.881Z,2.10
2023-02-13T07:16:34.988Z,2.17
2023-02-13T07:17:11.085Z,2.22
2023-02-13T07:17:46.123Z,1.92
2023-02-13T07:18:20.464Z,2.08
2023-02-13T07:18:55.705Z,2.30
2023-02-13T07:19:30.231Z,2.28
2023-02-13T07:20:05.188Z,2.15
2023-02-13T07:20:40.470Z,2.42
2023-02-13T07:21:15.274Z,2.42
2023-02-13T07:21:48.465Z,2.63
2023-02-13T07:22:25.040Z,2.55
2023-02-13T07:23:00.041Z,2.53
2023-02-13T07:23:34.760Z,1.88
2023-02-13T07:24:10.088Z,2.58
2023-02-13T07:24:44.198Z,2.63
2023-02-13T07:25:19.355Z,2.20
2023-02-13T07:25:53.318Z,2.28
2023-02-13T07:26:29.647Z,2.67
2023-02-13T07:27:03.726Z,2.47
2023-02-13T07:27:40.612Z,2.15
2023-02-13T07:28:16.020Z,2.63
2023-02-13T07:28:59.447Z,2.28
2023-02-13T07:29:40.251Z,2.20
2023-02-13T07:30:16.931Z,2.40
2023-02-13T07:30:51.739Z,2.33
2023-02-13T07:31:31.923Z,1.85
2023-02-13T07:32:07.761Z,2.33
2023-02-13T07:32:42.643Z,3.17
2023-02-13T07:33:17.523Z,2.83
2023-02-13T07:33:51.161Z,2.85
2023-02-13T07:34:25.969Z,2.63
2023-02-13T07:35:02.288Z,2.85
2023-02-13T07:35:41.493Z,2.70
2023-02-13T07:36:14.965Z,2.90
2023-02-13T07:36:49.584Z,2.80
2023-02-13T07:37:26.039Z,2.80
2023-02-13T07:38:01.123Z,2.45
2023-02-13T07:38:36.190Z,2.72
2023-02-13T07:39:11.821Z,2.88
2023-02-13T07:39:47.818Z,2.85
2023-02-13T07:40:22.245Z,3.25
2023-02-13T07:40:57.473Z,2.95
2023-02-13T07:41:31.962Z,2.85
2023-02-13T07:42:06.630Z,2.83
2023-02-13T07:42:40.783Z,2.45
2023-02-13T07:43:15.731Z,2.92
2023-02-13T07:43:51.925Z,2.22
2023-02-13T07:44:26.031Z,2.30
2023-02-13T07:45:01.893Z,2.13
2023-02-13T07:45:37.897Z,2.55
2023-02-13T07:46:13.610Z,2.70
2023-02-13T07:46:48.600Z,2.47
2023-02-13T07:47:23.390Z,1.83
2023-02-13T07:47:57.293Z,2.45
2023-02-13T07:48:32.486Z,3.08
2023-02-13T07:49:08.163Z,3.20
2023-02-13T07:49:44.100Z,2.50
2023-02-13T07:50:18.046Z,2.50
2023-02-13T07:50:54.223Z,2.47
2023-02-13T07:51:29.781Z,2.28
2023-02-13T07:52:04.957Z,2.58
2023-02-13T07:52:40.744Z,2.72
2023-02-13T07:53:16.809Z,2.50
2023-02-13T07:53:51.095Z,3.03
2023-02-13T07:54:26.284Z,2.50
2023-02-13T07:55:01.547Z,3.38
2023-02-13T07:55:36.715Z,2.58
2023-02-13T07:56:11.583Z,3.08
2023-02-13T07:56:45.279Z,2.53
2023-02-13T07:57:20.074Z,3.05
2023-02-13T07:57:54.374Z,2.45
2023-02-13T07:58:31.872Z,2.45
2023-02-13T07:59:06.863Z,2.75
2023-02-13T07:59:43.041Z,2.90
2023-02-13T08:00:16.904Z,3.42
2023-02-13T08:00:51.106Z,3.45
2023-02-13T08:01:25.859Z,2.83
2023-02-13T08:02:00.034Z,2.58
2023-02-13T08:02:34.711Z,2.80
2023-02-13T08:03:08.016Z,2.58
2023-02-13T08:03:44.021Z,2.17
2023-02-13T08:04:18.264Z,2.08
2023-02-13T08:04:54.444Z,2.03
2023-02-13T08:05:29.083Z,2.75
2023-02-13T08:06:03.855Z,2.40
2023-02-13T08:06:40.195Z,2.30
2023-02-13T08:07:14.923Z,2.60
2023-02-13T08:07:50.065Z,2.97
2023-02-13T08:08:24.411Z,2.85
2023-02-13T08:09:16.397Z,2.83
2023-02-13T08:10:08.847Z,3.00
2023-02-13T08:11:01.073Z,2.33
2023-02-13T08:11:53.348Z,2.22
2023-02-13T08:12:29.666Z,2.70
2023-02-13T08:13:03.789Z,2.58
2023-02-13T08:13:39.198Z,3.00
2023-02-13T08:14:13.259Z,2.53
2023-02-13T08:14:48.575Z,2.70
2023-02-13T08:15:22.630Z,4.25
2023-02-13T08:15:58.447Z,5.22